createdAt,value
2024-02-24T00:00:55.219Z,7.24
2024-02-24T00:03:23.045Z,7.56
2024-02-24T00:05:50.050Z,7.64
2024-02-24T00:08:17.183Z,7.66
2024-02-24T00:10:44.221Z,7.96
2024-02-24T00:13:11.215Z,8.30
2024-02-24T00:15:38.166Z,8.32
2024-02-24T00:18:05.974Z,8.24
2024-02-24T00:20:32.914Z,8.19
2024-02-24T00:23:00.194Z,8.19
2024-02-24T00:25:27.537Z,8.10
2024-02-24T00:27:56.418Z,8.10
2024-02-24T00:30:23.412Z,8.07
2024-02-24T00:32:50.505Z,8.32
2024-02-24T00:35:17.651Z,8.47
2024-02-24T00:37:44.571Z,8.49
2024-02-24T00:40:11.861Z,8.59
2024-02-24T00:42:38.734Z,8.48
2024-02-24T00:45:06.317Z,8.61
2024-02-24T00:47:34.272Z,8.88
2024-02-24T00:50:01.237Z,9.03
2024-02-24T00:52:28.114Z,9.04
2024-02-24T00:54:54.923Z,9.11
2024-02-24T00:57:21.991Z,9.16
2024-02-24T00:59:48.993Z,9.08
2024-02-24T01:02:16.037Z,8.99
2024-02-24T01:04:43.570Z,9.11
2024-02-24T01:07:11.972Z,9.37
2024-02-24T01:09:38.993Z,9.60
2024-02-24T01:12:07.684Z,10.00
2024-02-24T01:14:34.621Z,10.19
2024-02-24T01:17:01.615Z,10.29
2024-02-24T01:19:28.599Z,10.38
2024-02-24T01:21:58.341Z,10.46
2024-02-24T01:24:25.455Z,10.61
2024-02-24T01:26:52.405Z,10.70
2024-02-24T01:29:19.328Z,10.62
2024-02-24T01:31:46.189Z,10.54
2024-02-24T01:34:13.274Z,10.47
2024-02-24T01:36:40.154Z,10.28
2024-02-24T01:39:06.903Z,10.40
2024-02-24T01:41:33.705Z,10.43
2024-02-24T01:44:00.513Z,10.32
2024-02-24T01:46:27.647Z,10.16
2024-02-24T01:48:54.560Z,10.08
2024-02-24T01:51:21.539Z,9.97
2024-02-24T01:53:48.847Z,9.87
2024-02-24T01:56:15.889Z,9.87
2024-02-24T01:58:43.619Z,9.76
2024-02-24T02:01:10.829Z,9.73
2024-02-24T02:03:38.680Z,9.56
2024-02-24T02:06:06.139Z,9.39
2024-02-24T02:08:33.372Z,9.38
2024-02-24T02:11:00.357Z,9.32
2024-02-24T02:13:27.358Z,9.21
2024-02-24T02:15:57.113Z,9.07
2024-02-24T02:18:24.177Z,8.97
2024-02-24T02:20:53.203Z,8.89
2024-02-24T02:23:20.518Z,8.78
2024-02-24T02:25:47.415Z,8.71
2024-02-24T02:28:14.241Z,8.68
2024-02-24T02:30:40.987Z,8.58
2024-02-24T02:33:10.398Z,8.57
2024-02-24T02:35:38.214Z,8.48
2024-02-24T02:38:09.489Z,8.33
2024-02-24T02:40:37.115Z,8.31
2024-02-24T02:43:04.446Z,8.30
2024-02-24T02:45:31.227Z,8.24
2024-02-24T02:47:58.155Z,8.04
2024-02-24T02:50:25.197Z,8.03
2024-02-24T02:52:52.053Z,7.88
2024-02-24T02:55:19.457Z,7.71
2024-02-24T02:57:46.550Z,7.61
2024-02-24T03:00:13.913Z,7.39
2024-02-24T03:02:40.800Z,7.23
2024-02-24T03:05:09.152Z,7.13
2024-02-24T03:07:35.969Z,6.99
2024-02-24T03:10:04.308Z,6.83
2024-02-24T03:12:31.491Z,6.79
2024-02-24T03:14:58.932Z,6.68
2024-02-24T03:17:25.804Z,6.63
2024-02-24T03:19:52.574Z,6.61
2024-02-24T03:22:19.347Z,6.56
2024-02-24T03:24:46.154Z,6.38
2024-02-24T03:27:13.173Z,6.30
2024-02-24T03:29:40.060Z,6.25
2024-02-24T03:32:07.709Z,6.09
2024-02-24T03:34:34.608Z,6.11
2024-02-24T03:37:01.570Z,5.99
2024-02-24T03:39:28.413Z,6.01
2024-02-24T03:41:55.251Z,5.90
2024-02-24T03:44:22.099Z,5.87
2024-02-24T03:46:49.138Z,5.80
2024-02-24T03:49:16.061Z,5.72
2024-02-24T03:51:43.013Z,5.69
2024-02-24T03:54:11.779Z,5.63
2024-02-24T03:56:38.918Z,5.54
2024-02-24T03:59:05.915Z,5.47
2024-02-24T04:01:32.890Z,5.42
2024-02-24T04:03:59.869Z,5.31
2024-02-24T04:06:26.704Z,5.28
2024-02-24T04:08:53.584Z,5.23
2024-02-24T04:11:23.825Z,5.15
2024-02-24T04:13:50.665Z,5.07
2024-02-24T04:16:17.437Z,5.02
2024-02-24T04:18:44.362Z,5.03
2024-02-24T04:21:11.168Z,4.93
2024-02-24T04:23:37.988Z,4.85
2024-02-24T04:26:04.923Z,4.80
2024-02-24T04:28:31.740Z,4.72
2024-02-24T04:30:58.611Z,4.71
2024-02-24T04:33:25.572Z,4.69
2024-02-24T04:35:52.602Z,4.62
2024-02-24T04:38:19.470Z,4.58
2024-02-24T04:40:46.195Z,4.53
2024-02-24T04:43:12.869Z,4.50
2024-02-24T04:45:39.629Z,4.47
2024-02-24T04:48:06.968Z,4.46
2024-02-24T04:50:34.089Z,4.46
2024-02-24T04:53:00.796Z,4.32
2024-02-24T04:55:27.884Z,4.27
2024-02-24T04:57:54.636Z,4.21
2024-02-24T05:00:21.594Z,4.18
2024-02-24T05:02:48.527Z,4.16
2024-02-24T05:05:15.470Z,4.20
2024-02-24T05:07:42.318Z,4.19
2024-02-24T05:10:09.814Z,4.17
2024-02-24T05:12:37.350Z,4.07
2024-02-24T05:15:04.379Z,4.05
2024-02-24T05:17:31.247Z,4.10
2024-02-24T05:19:58.109Z,4.13
2024-02-24T05:22:25.022Z,4.07
2024-02-24T05:24:51.871Z,4.09
2024-02-24T05:27:21.108Z,4.08
2024-02-24T05:29:48.442Z,4.05
2024-02-24T05:32:18.117Z,3.93
2024-02-24T05:34:45.452Z,4.00
2024-02-24T05:37:12.632Z,4.03
2024-02-24T05:39:39.567Z,4.03
2024-02-24T05:42:07.452Z,4.06
2024-02-24T05:44:34.981Z,4.14
2024-02-24T05:47:02.059Z,4.24
2024-02-24T05:49:28.855Z,4.31
2024-02-24T05:51:55.751Z,4.37
2024-02-24T05:54:23.248Z,4.39
2024-02-24T05:56:50.128Z,4.47
2024-02-24T05:59:17.544Z,4.54
2024-02-24T06:01:44.490Z,4.66
2024-02-24T06:04:11.281Z,4.74
2024-02-24T06:06:38.106Z,4.85
2024-02-24T06:09:04.858Z,4.88
2024-02-24T06:11:34.334Z,5.07
2024-02-24T06:14:01.153Z,5.19
2024-02-24T06:16:27.857Z,5.36
2024-02-24T06:18:54.658Z,5.55
2024-02-24T06:21:21.461Z,5.67
2024-02-24T06:23:48.343Z,5.80
2024-02-24T06:26:15.425Z,5.95
2024-02-24T06:28:43.495Z,6.18
2024-02-24T06:31:10.203Z,6.42
2024-02-24T06:33:37.058Z,6.66
2024-02-24T06:36:04.457Z,6.97
2024-02-24T06:38:31.593Z,7.22
2024-02-24T06:40:58.439Z,7.53
2024-02-24T06:43:25.121Z,7.85
2024-02-24T06:45:51.839Z,8.20
2024-02-24T06:48:19.003Z,8.56
2024-02-24T06:50:46.062Z,8.89
2024-02-24T06:53:14.030Z,9.25
2024-02-24T06:55:40.680Z,9.57
2024-02-24T06:58:08.754Z,9.88
2024-02-24T07:00:36.958Z,10.20
2024-02-24T07:03:04.323Z,10.55
2024-02-24T07:05:33.046Z,10.88
2024-02-24T07:07:59.994Z,11.19
2024-02-24T07:10:26.848Z,11.61
2024-02-24T07:12:53.655Z,11.98
2024-02-24T07:15:21.014Z,12.32
2024-02-24T07:17:47.877Z,12.64
2024-02-24T07:20:14.814Z,12.91
2024-02-24T07:22:43.178Z,13.24
2024-02-24T07:25:09.947Z,13.43
2024-02-24T07:27:36.709Z,13.72
2024-02-24T07:30:03.686Z,13.98
2024-02-24T07:32:30.612Z,14.31
2024-02-24T07:34:57.444Z,14.55
2024-02-24T07:37:24.303Z,14.74
2024-02-24T07:39:51.177Z,14.93
2024-02-24T07:42:18.029Z,15.14
2024-02-24T07:44:44.860Z,15.40
2024-02-24T07:47:11.747Z,15.64
2024-02-24T07:49:38.562Z,15.85
2024-02-24T07:52:05.947Z,16.07
2024-02-24T07:54:33.145Z,16.24
2024-02-24T07:57:00.054Z,16.46
2024-02-24T07:59:26.996Z,16.58
2024-02-24T08:01:53.991Z,16.73
2024-02-24T08:04:21.970Z,16.99
2024-02-24T08:06:49.033Z,17.28
2024-02-24T08:09:16.299Z,17.47
2024-02-24T08:11:45.881Z,17.71
2024-02-24T08:14:13.008Z,17.79
2024-02-24T08:16:40.426Z,17.89
2024-02-24T08:19:08.223Z,17.98
2024-02-24T08:21:40.948Z,18.12
2024-02-24T08:24:11.479Z,18.47
2024-02-24T08:26:41.361Z,18.74
2024-02-24T08:29:10.887Z,18.81
2024-02-24T08:31:39.097Z,18.86
2024-02-24T08:34:06.142Z,18.85
2024-02-24T08:36:33.193Z,19.04
2024-02-24T08:39:01.273Z,19.34
2024-02-24T08:41:28.948Z,19.59
2024-02-24T08:43:56.168Z,19.45
2024-02-24T08:46:23.062Z,19.42
2024-02-24T08:48:49.845Z,19.31
2024-02-24T08:51:16.870Z,19.36
2024-02-24T08:53:43.753Z,19.42
2024-02-24T08:56:13.418Z,19.46
2024-02-24T08:58:40.206Z,19.52
2024-02-24T09:01:07.642Z,19.58
2024-02-24T09:03:34.481Z,19.58
2024-02-24T09:06:01.378Z,19.72
2024-02-24T09:08:28.897Z,19.77
2024-02-24T09:10:56.006Z,19.85
2024-02-24T09:13:22.795Z,19.92
2024-02-24T09:15:49.609Z,19.92
2024-02-24T09:18:17.885Z,20.02
2024-02-24T09:20:45.041Z,20.01
2024-02-24T09:23:11.906Z,19.90
2024-02-24T09:25:38.772Z,19.91
2024-02-24T09:28:08.352Z,20.02
2024-02-24T09:30:37.918Z,20.08
2024-02-24T09:33:04.961Z,19.93
2024-02-24T09:35:31.846Z,19.89
2024-02-24T09:37:58.819Z,19.86
2024-02-24T09:40:25.624Z,19.82
2024-02-24T09:43:01.975Z,19.83
2024-02-24T09:45:35.412Z,19.67
2024-02-24T09:48:02.532Z,19.71
2024-02-24T09:50:29.592Z,19.66
2024-02-24T09:52:56.458Z,19.68
2024-02-24T09:55:23.227Z,19.70
2024-02-24T09:57:51.120Z,19.65
2024-02-24T10:00:21.146Z,19.59
2024-02-24T10:02:48.042Z,19.55
2024-02-24T10:05:18.047Z,19.66
2024-02-24T10:07:46.615Z,19.65
2024-02-24T10:10:18.312Z,19.69
2024-02-24T10:13:03.960Z,19.74
2024-02-24T10:15:31.112Z,19.80
2024-02-24T10:17:59.150Z,19.72
2024-02-24T10:20:26.587Z,19.82
2024-02-24T10:22:53.633Z,19.82
2024-02-24T10:25:21.039Z,19.81
2024-02-24T10:27:48.525Z,19.87
2024-02-24T10:30:15.981Z,19.92
2024-02-24T10:32:43.521Z,19.78
2024-02-24T10:35:12.065Z,19.72
2024-02-24T10:40:09.544Z,19.77
2024-02-24T10:42:37.288Z,19.81
2024-02-24T10:45:07.903Z,19.90
2024-02-24T10:47:37.180Z,19.93
2024-02-24T10:50:05.161Z,19.98
2024-02-24T10:52:33.139Z,20.05
2024-02-24T10:55:03.617Z,20.14
2024-02-24T10:57:31.761Z,20.21
2024-02-24T11:00:01.009Z,20.23
2024-02-24T11:02:30.521Z,20.14
2024-02-24T11:05:01.586Z,20.24
2024-02-24T11:07:33.963Z,20.23
2024-02-24T11:10:02.433Z,20.29
2024-02-24T11:12:32.382Z,20.43
2024-02-24T11:14:59.939Z,20.54
2024-02-24T11:17:50.413Z,20.54
2024-02-24T11:20:37.144Z,20.24
2024-02-24T11:23:27.259Z,20.29
2024-02-24T11:26:12.299Z,20.34
2024-02-24T11:28:45.191Z,20.35
2024-02-24T11:31:43.064Z,20.23
2024-02-24T11:34:12.015Z,20.24
2024-02-24T11:36:40.525Z,20.29
2024-02-24T11:39:09.337Z,20.37
2024-02-24T11:41:38.180Z,20.32
2024-02-24T11:44:05.446Z,20.39
2024-02-24T11:46:32.271Z,20.17
2024-02-24T11:49:00.997Z,20.15
2024-02-24T11:51:31.327Z,20.14
2024-02-24T11:53:58.237Z,20.13
2024-02-24T11:56:26.943Z,20.12
2024-02-24T11:58:58.159Z,19.81
2024-02-24T12:01:25.266Z,19.77
2024-02-24T12:03:54.504Z,19.83
2024-02-24T12:06:26.560Z,19.77
2024-02-24T12:08:54.970Z,19.73
2024-02-24T12:11:22.751Z,19.75
2024-02-24T12:13:51.086Z,19.80
2024-02-24T12:16:18.387Z,19.85
2024-02-24T12:18:47.222Z,19.88
2024-02-24T12:21:15.154Z,19.90
2024-02-24T12:23:42.689Z,20.06
2024-02-24T12:26:19.118Z,20.13
2024-02-24T12:28:48.098Z,20.22
2024-02-24T12:31:15.700Z,20.20
2024-02-24T12:33:44.726Z,20.09
2024-02-24T12:36:13.242Z,20.10
2024-02-24T12:38:41.233Z,20.06
2024-02-24T12:41:12.232Z,19.99
2024-02-24T12:43:40.055Z,20.13
2024-02-24T12:46:09.435Z,20.09
2024-02-24T12:48:37.766Z,20.30
2024-02-24T12:51:05.830Z,20.43
2024-02-24T12:53:32.723Z,20.45
2024-02-24T12:56:01.171Z,20.29
2024-02-24T12:58:28.028Z,20.28
2024-02-24T13:00:55.261Z,20.20
2024-02-24T13:03:23.453Z,20.14
2024-02-24T13:05:50.609Z,20.23
2024-02-24T13:08:18.433Z,20.27
2024-02-24T13:10:45.970Z,20.32
2024-02-24T13:13:13.064Z,20.37
2024-02-24T13:15:39.886Z,20.37
2024-02-24T13:18:07.260Z,20.42
2024-02-24T13:20:34.395Z,20.36
2024-02-24T13:23:01.290Z,20.29
2024-02-24T13:25:28.196Z,20.26
2024-02-24T13:27:55.094Z,20.21
2024-02-24T13:30:23.182Z,20.15
2024-02-24T13:32:51.500Z,20.12
2024-02-24T13:35:18.615Z,20.08
2024-02-24T13:37:45.396Z,20.06
2024-02-24T13:40:12.460Z,19.92
2024-02-24T13:42:40.170Z,19.97
2024-02-24T13:45:08.421Z,19.84
2024-02-24T13:47:36.417Z,19.65
2024-02-24T13:50:03.702Z,19.60
2024-02-24T13:52:30.643Z,19.52
2024-02-24T13:54:57.540Z,19.49
2024-02-24T13:57:24.420Z,19.63
2024-02-24T13:59:51.432Z,19.54
2024-02-24T14:02:18.739Z,19.52
2024-02-24T14:04:45.697Z,19.49
2024-02-24T14:07:13.860Z,19.50
2024-02-24T14:09:41.048Z,19.47
2024-02-24T14:12:08.377Z,19.39
2024-02-24T14:14:35.213Z,19.31
2024-02-24T14:17:01.985Z,19.27
2024-02-24T14:19:31.150Z,19.25
2024-02-24T14:21:57.973Z,19.29
2024-02-24T14:24:24.737Z,19.18
2024-02-24T14:26:53.268Z,19.19
2024-02-24T14:29:20.139Z,19.17
2024-02-24T14:31:46.918Z,19.09
2024-02-24T14:34:13.856Z,19.12
2024-02-24T14:36:40.650Z,19.11
2024-02-24T14:39:07.477Z,18.96
2024-02-24T14:41:34.415Z,18.97
2024-02-24T14:44:01.302Z,18.90
2024-02-24T14:46:28.260Z,18.91
2024-02-24T14:48:55.231Z,18.99
2024-02-24T14:51:23.444Z,18.92
2024-02-24T14:53:52.488Z,18.84
2024-02-24T14:56:20.053Z,18.78
2024-02-24T14:58:46.878Z,18.53
2024-02-24T15:01:15.821Z,18.54
2024-02-24T15:03:45.891Z,18.43
2024-02-24T15:06:15.808Z,18.48
2024-02-24T15:08:43.057Z,18.51
2024-02-24T15:11:10.268Z,18.42
2024-02-24T15:13:38.088Z,18.37
2024-02-24T15:16:05.870Z,18.27
2024-02-24T15:18:32.753Z,18.18
2024-02-24T15:20:59.936Z,18.14
2024-02-24T15:23:26.862Z,18.06
2024-02-24T15:25:53.660Z,17.92
2024-02-24T15:28:20.516Z,17.87
2024-02-24T15:30:47.310Z,17.81
2024-02-24T15:35:41.243Z,17.54
2024-02-24T15:38:08.000Z,17.54
2024-02-24T15:40:37.731Z,17.46
2024-02-24T15:43:06.471Z,17.37
2024-02-24T15:45:33.293Z,17.20
2024-02-24T15:48:00.109Z,17.21
2024-02-24T15:50:27.248Z,17.16
2024-02-24T15:52:53.995Z,17.07
2024-02-24T15:55:21.048Z,17.01
2024-02-24T15:57:49.260Z,16.96
2024-02-24T16:00:16.773Z,17.01
2024-02-24T16:02:44.747Z,16.97
2024-02-24T16:05:11.830Z,16.86
2024-02-24T16:07:38.782Z,16.88
2024-02-24T16:10:06.297Z,16.75
2024-02-24T16:12:33.182Z,16.64
2024-02-24T16:15:00.141Z,16.63
2024-02-24T16:17:27.055Z,16.51
2024-02-24T16:19:53.881Z,16.44
2024-02-24T16:22:20.634Z,16.41
2024-02-24T16:24:47.491Z,16.40
2024-02-24T16:27:14.358Z,16.30
2024-02-24T16:29:41.195Z,16.13
2024-02-24T16:32:09.871Z,16.02
2024-02-24T16:34:37.556Z,15.84
2024-02-24T16:37:05.067Z,15.62
2024-02-24T16:39:33.866Z,15.41
2024-02-24T16:42:01.350Z,15.24
2024-02-24T16:44:28.609Z,15.11
2024-02-24T16:46:56.255Z,14.98
2024-02-24T16:49:23.738Z,14.85
2024-02-24T16:51:53.622Z,14.67
2024-02-24T16:54:20.694Z,14.45
2024-02-24T16:56:47.504Z,14.20
2024-02-24T16:59:14.434Z,14.05
2024-02-24T17:01:41.798Z,13.94
2024-02-24T17:04:08.825Z,13.73
2024-02-24T17:06:36.438Z,13.55
2024-02-24T17:09:04.322Z,13.39
2024-02-24T17:11:31.295Z,13.21
2024-02-24T17:13:58.479Z,13.05
2024-02-24T17:16:25.250Z,12.92
2024-02-24T17:18:52.662Z,12.76
2024-02-24T17:21:19.834Z,12.70
2024-02-24T17:23:46.954Z,12.69
2024-02-24T17:26:18.297Z,12.61
2024-02-24T17:28:47.623Z,12.45
2024-02-24T17:31:14.707Z,12.36
2024-02-24T17:33:45.453Z,12.18
2024-02-24T17:36:13.040Z,12.06
2024-02-24T17:38:40.187Z,12.00
2024-02-24T17:41:07.269Z,11.93
2024-02-24T17:43:34.118Z,11.86
2024-02-24T17:46:01.225Z,11.73
2024-02-24T17:48:28.553Z,11.61
2024-02-24T17:50:55.778Z,11.61
2024-02-24T17:53:23.798Z,11.49
2024-02-24T17:55:50.979Z,11.46
2024-02-24T17:58:18.882Z,11.32
2024-02-24T18:00:46.057Z,11.28
2024-02-24T18:03:15.459Z,11.18
2024-02-24T18:05:42.844Z,11.11
2024-02-24T18:08:09.846Z,11.01
2024-02-24T18:10:36.806Z,10.99
2024-02-24T18:13:03.936Z,10.94
2024-02-24T18:15:30.881Z,10.82
2024-02-24T18:17:57.908Z,10.75
2024-02-24T18:20:24.895Z,10.70
2024-02-24T18:22:51.782Z,10.68
2024-02-24T18:25:18.974Z,10.61
2024-02-24T18:27:45.692Z,10.52
2024-02-24T18:30:12.749Z,10.48
2024-02-24T18:32:39.720Z,10.42
2024-02-24T18:35:06.879Z,10.31
2024-02-24T18:37:33.588Z,10.35
2024-02-24T18:40:05.851Z,10.32
2024-02-24T18:42:33.560Z,10.33
2024-02-24T18:45:00.809Z,10.28
2024-02-24T18:47:28.040Z,10.20
2024-02-24T18:49:55.081Z,10.10
2024-02-24T18:52:22.069Z,10.06
2024-02-24T18:54:49.104Z,10.00
2024-02-24T18:57:16.249Z,9.99
2024-02-24T18:59:43.778Z,9.86
2024-02-24T19:02:13.557Z,9.87
2024-02-24T19:04:40.786Z,9.78
2024-02-24T19:07:12.020Z,9.76
2024-02-24T19:09:42.500Z,9.72
2024-02-24T19:12:10.050Z,9.67
2024-02-24T19:14:45.780Z,9.69
2024-02-24T19:17:19.709Z,9.62
2024-02-24T19:19:49.113Z,9.64
2024-02-24T19:22:16.042Z,9.62
2024-02-24T19:24:42.872Z,9.60
2024-02-24T19:27:09.842Z,9.53
2024-02-24T19:29:37.737Z,9.57
2024-02-24T19:32:04.631Z,9.52
2024-02-24T19:34:31.413Z,9.50
2024-02-24T19:36:58.426Z,9.47
2024-02-24T19:39:25.290Z,9.46
2024-02-24T19:41:52.362Z,9.42
2024-02-24T19:44:19.129Z,9.39
2024-02-24T19:46:45.846Z,9.31
2024-02-24T19:49:13.112Z,9.32
2024-02-24T19:51:40.293Z,9.22
2024-02-24T19:54:07.490Z,9.20
2024-02-24T19:56:34.884Z,9.21
2024-02-24T19:59:01.707Z,9.20
2024-02-24T20:01:28.657Z,9.09
2024-02-24T20:03:55.577Z,9.10
2024-02-24T20:06:22.522Z,9.09
2024-02-24T20:08:49.541Z,9.09
2024-02-24T20:11:16.601Z,9.08
2024-02-24T20:13:43.752Z,9.08
2024-02-24T20:16:11.067Z,9.10
2024-02-24T20:18:38.182Z,9.03
2024-02-24T20:21:06.575Z,8.90
2024-02-24T20:23:33.397Z,8.93
2024-02-24T20:26:00.671Z,8.90
2024-02-24T20:28:27.668Z,8.93
2024-02-24T20:30:54.461Z,8.95
2024-02-24T20:33:21.490Z,8.88
2024-02-24T20:35:48.613Z,8.91
2024-02-24T20:38:15.560Z,8.87
2024-02-24T20:40:42.909Z,8.83
2024-02-24T20:43:09.743Z,8.92
2024-02-24T20:45:36.562Z,8.90
2024-02-24T20:48:03.648Z,8.80
2024-02-24T20:50:31.764Z,8.76
2024-02-24T20:52:58.963Z,8.75
2024-02-24T20:55:26.486Z,8.69
2024-02-24T20:57:55.240Z,8.65
2024-02-24T21:00:22.128Z,8.57
2024-02-24T21:02:49.223Z,8.58
2024-02-24T21:05:16.215Z,8.52
2024-02-24T21:07:42.916Z,8.56
2024-02-24T21:10:10.319Z,8.53
2024-02-24T21:12:37.245Z,8.56
2024-02-24T21:15:04.514Z,8.55
2024-02-24T21:17:31.490Z,8.51
2024-02-24T21:20:04.650Z,8.49
2024-02-24T21:22:32.883Z,8.44
2024-02-24T21:25:00.777Z,8.50
2024-02-24T21:27:27.753Z,8.44
2024-02-24T21:29:54.633Z,8.45
2024-02-24T21:32:21.418Z,8.38
2024-02-24T21:34:48.626Z,8.42
2024-02-24T21:37:15.940Z,8.45
2024-02-24T21:39:42.835Z,8.38
2024-02-24T21:42:10.611Z,8.29
2024-02-24T21:44:37.638Z,8.31
2024-02-24T21:47:04.695Z,8.31
2024-02-24T21:49:31.712Z,8.33
2024-02-24T21:51:58.754Z,8.35
2024-02-24T21:54:25.636Z,8.30
2024-02-24T21:56:55.464Z,8.32
2024-02-24T21:59:22.387Z,8.33
2024-02-24T22:01:49.480Z,8.36
2024-02-24T22:04:16.693Z,8.33
2024-02-24T22:06:44.226Z,8.34
2024-02-24T22:09:11.471Z,8.34
2024-02-24T22:11:39.725Z,8.32
2024-02-24T22:14:06.766Z,8.29
2024-02-24T22:16:33.727Z,8.36
2024-02-24T22:19:00.720Z,8.39
2024-02-24T22:21:30.580Z,8.41
2024-02-24T22:23:57.574Z,8.55
2024-02-24T22:26:25.317Z,8.55
2024-02-24T22:28:53.688Z,8.44
2024-02-24T22:31:20.629Z,8.40
2024-02-24T22:33:47.695Z,8.41
2024-02-24T22:36:14.797Z,8.44
2024-02-24T22:38:44.975Z,8.48
2024-02-24T22:41:11.852Z,8.49
2024-02-24T22:43:38.805Z,8.54
2024-02-24T22:46:08.279Z,8.50
2024-02-24T22:48:35.282Z,8.55
2024-02-24T22:51:02.294Z,8.57
2024-02-24T22:53:29.194Z,8.55
2024-02-24T22:55:56.008Z,8.65
2024-02-24T22:58:22.793Z,8.61
2024-02-24T23:00:50.322Z,8.62
2024-02-24T23:03:18.840Z,8.63
2024-02-24T23:05:46.918Z,8.66
2024-02-24T23:08:13.881Z,8.61
2024-02-24T23:10:40.728Z,8.63
2024-02-24T23:13:07.557Z,8.59
2024-02-24T23:15:34.458Z,8.59
2024-02-24T23:18:01.392Z,8.58
2024-02-24T23:20:28.453Z,8.68
2024-02-24T23:22:55.705Z,8.72
2024-02-24T23:25:22.825Z,8.76
2024-02-24T23:27:49.614Z,8.71
2024-02-24T23:30:16.726Z,8.64
2024-02-24T23:32:46.310Z,8.56
2024-02-24T23:35:13.957Z,8.44
2024-02-24T23:37:40.831Z,8.38
2024-02-24T23:40:11.280Z,8.45
2024-02-24T23:42:40.922Z,8.46
2024-02-24T23:45:07.941Z,8.42
2024-02-24T23:47:34.821Z,8.41
2024-02-24T23:50:01.693Z,8.39
2024-02-24T23:52:28.468Z,8.39
2024-02-24T23:54:56.238Z,8.43
2024-02-24T23:57:23.498Z,8.44
2024-02-24T23:59:50.454Z,8.39
